Time,TemperatureF,DewpointF,PressureIn,WindDirection,WindDirectionDegrees,WindSpeedMPH,WindSpeedGustMPH,Humidity,HourlyPrecipIn,Conditions,Clouds,dailyrainin,SoftwareType,DateUTC
2013-04-01 00:01:00,54.7,50.8,29.90,SSW,202,0.0,0.0,87,0.06,,,0.00,WUHU21623XXSP,2013-04-01 04:01:00,
2013-04-01 00:06:00,54.7,50.8,29.90,SSW,202,0.0,0.0,87,0.06,,,0.00,WUHU21623XXSP,2013-04-01 04:06:00,
2013-04-01 00:11:00,54.7,50.8,29.90,SSW,202,0.0,0.0,87,0.06,,,0.00,WUHU21623XXSP,2013-04-01 04:11:00,
2013-04-01 00:16:00,54.7,50.8,29.90,SSW,202,0.0,0.0,87,0.08,,,0.00,WUHU21623XXSP,2013-04-01 04:16:00,
2013-04-01 00:21:00,54.7,50.8,29.90,SSW,202,0.0,0.0,87,0.08,,,0.02,WUHU21623XXSP,2013-04-01 04:21:00,
2013-04-01 00:26:00,54.7,51.2,29.90,SSW,202,0.0,0.0,88,0.08,,,0.02,WUHU21623XXSP,2013-04-01 04:26:00,
2013-04-01 00:31:00,54.7,51.2,29.90,SSW,202,0.0,0.0,88,0.08,,,0.02,WUHU21623XXSP,2013-04-01 04:31:00,
2013-04-01 00:37:00,54.7,51.2,29.90,SSW,202,0.0,0.0,88,0.08,,,0.02,WUHU21623XXSP,2013-04-01 04:37:00,
2013-04-01 00:42:00,54.7,51.2,29.90,SSW,202,0.0,0.0,88,0.08,,,0.02,WUHU21623XXSP,2013-04-01 04:42:00,
2013-04-01 00:47:00,54.5,51.0,29.89,SSW,202,0.0,0.0,88,0.08,,,0.02,WUHU21623XXSP,2013-04-01 04:47:00,
2013-04-01 00:52:00,54.5,51.0,29.89,SSW,202,0.0,0.0,88,0.06,,,0.02,WUHU21623XXSP,2013-04-01 04:52:00,
2013-04-01 00:57:00,54.3,50.8,29.89,SSW,202,0.0,0.0,88,0.02,,,0.02,WUHU21623XXSP,2013-04-01 04:57:00,
2013-04-01 01:02:00,54.3,50.8,29.90,SSW,202,0.0,0.0,88,0.02,,,0.02,WUHU21623XXSP,2013-04-01 05:02:00,
2013-04-01 01:07:00,54.3,50.8,29.89,SSW,202,0.0,0.0,88,0.02,,,0.02,WUHU21623XXSP,2013-04-01 05:07:00,
2013-04-01 01:12:00,54.3,50.8,29.90,SSW,202,0.0,0.0,88,0.02,,,0.02,WUHU21623XXSP,2013-04-01 05:12:00,
2013-04-01 01:17:00,54.3,50.8,29.90,SSW,202,0.0,0.0,88,0.00,,,0.02,WUHU21623XXSP,2013-04-01 05:17:00,
2013-04-01 01:22:00,54.1,50.6,29.90,SSW,202,0.0,0.0,88,0.00,,,0.02,WUHU21623XXSP,2013-04-01 05:22:00,
2013-04-01 01:27:00,54.1,50.6,29.90,SSW,202,0.0,0.0,88,0.00,,,0.02,WUHU21623XXSP,2013-04-01 05:27:00,
2013-04-01 01:33:00,54.1,50.6,29.89,SSW,202,0.0,0.0,88,0.00,,,0.02,WUHU21623XXSP,2013-04-01 05:33:00,
2013-04-01 01:38:00,54.1,50.6,29.89,SSW,202,0.0,0.0,88,0.00,,,0.02,WUHU21623XXSP,2013-04-01 05:38:00,
2013-04-01 01:43:00,54.1,50.6,29.90,SSW,202,0.0,0.0,88,0.00,,,0.02,WUHU21623XXSP,2013-04-01 05:43:00,
2013-04-01 01:48:00,54.1,50.6,29.89,SSW,202,0.0,0.0,88,0.00,,,0.02,WUHU21623XXSP,2013-04-01 05:48:00,
2013-04-01 01:53:00,54.0,50.5,29.89,SSW,202,0.0,0.0,88,0.00,,,0.02,WUHU21623XXSP,2013-04-01 05:53:00,
2013-04-01 01:58:00,53.8,50.3,29.89,SSW,202,0.0,0.0,88,0.00,,,0.02,WUHU21623XXSP,2013-04-01 05:58:00,
2013-04-01 02:03:00,53.8,50.3,29.89,SSW,202,0.0,0.0,88,0.00,,,0.02,WUHU21623XXSP,2013-04-01 06:03:00,
2013-04-01 02:08:00,53.8,50.3,29.89,SSW,202,0.0,0.0,88,0.00,,,0.02,WUHU21623XXSP,2013-04-01 06:08:00,
2013-04-01 02:13:00,53.8,50.3,29.89,SSW,202,0.0,0.0,88,0.00,,,0.02,WUHU21623XXSP,2013-04-01 06:13:00,
2013-04-01 02:18:00,53.8,50.6,29.89,SSW,202,0.0,0.0,89,0.00,,,0.02,WUHU21623XXSP,2013-04-01 06:18:00,
2013-04-01 02:23:00,53.6,50.4,29.89,SSW,202,0.0,0.0,89,0.00,,,0.02,WUHU21623XXSP,2013-04-01 06:23:00,
2013-04-01 02:28:00,53.4,50.2,29.90,SW,225,0.0,0.0,89,0.00,,,0.02,WUHU21623XXSP,2013-04-01 06:28:00,
2013-04-01 02:33:00,53.2,49.7,29.89,SW,225,0.0,0.0,88,0.00,,,0.02,WUHU21623XXSP,2013-04-01 06:33:00,
2013-04-01 02:38:00,53.1,49.6,29.89,SW,225,0.0,0.0,88,0.00,,,0.02,WUHU21623XXSP,2013-04-01 06:38:00,
2013-04-01 02:43:00,52.9,49.4,29.89,SW,225,0.0,0.0,88,0.00,,,0.02,WUHU21623XXSP,2013-04-01 06:43:00,
2013-04-01 02:48:00,52.3,48.8,29.89,SW,225,0.0,0.0,88,0.00,,,0.02,WUHU21623XXSP,2013-04-01 06:48:00,
2013-04-01 02:53:00,52.0,48.5,29.89,SW,225,0.0,0.0,88,0.00,,,0.02,WUHU21623XXSP,2013-04-01 06:53:00,
2013-04-01 02:58:00,51.6,47.8,29.89,SW,225,0.0,0.0,87,0.00,,,0.02,WUHU21623XXSP,2013-04-01 06:58:00,
2013-04-01 03:03:00,51.4,47.6,29.89,SW,225,0.0,0.0,87,0.00,,,0.02,WUHU21623XXSP,2013-04-01 07:03:00,
2013-04-01 03:08:00,51.1,47.3,29.89,SW,225,0.0,0.0,87,0.00,,,0.02,WUHU21623XXSP,2013-04-01 07:08:00,
2013-04-01 03:13:00,50.7,46.9,29.89,SW,225,0.0,0.0,87,0.00,,,0.02,WUHU21623XXSP,2013-04-01 07:13:00,
2013-04-01 03:18:00,50.4,46.6,29.89,SW,225,0.0,0.0,87,0.00,,,0.02,WUHU21623XXSP,2013-04-01 07:18:00,
2013-04-01 03:23:00,50.2,46.4,29.89,SW,225,0.0,0.0,87,0.00,,,0.02,WUHU21623XXSP,2013-04-01 07:23:00,
2013-04-01 03:28:00,49.8,46.3,29.89,SW,225,0.0,0.0,88,0.00,,,0.02,WUHU21623XXSP,2013-04-01 07:28:00,
2013-04-01 03:33:00,49.8,46.3,29.89,SW,225,0.0,0.0,88,0.00,,,0.02,WUHU21623XXSP,2013-04-01 07:33:00,
2013-04-01 03:38:00,49.6,45.9,29.89,SW,225,0.0,0.0,87,0.00,,,0.02,WUHU21623XXSP,2013-04-01 07:38:00,
2013-04-01 03:43:00,49.5,45.7,29.89,SW,225,0.0,0.0,87,0.00,,,0.02,WUHU21623XXSP,2013-04-01 07:43:00,
2013-04-01 03:49:00,49.3,45.8,29.89,SW,225,0.0,0.0,88,0.00,,,0.02,WUHU21623XXSP,2013-04-01 07:49:00,
2013-04-01 03:54:00,49.1,45.7,29.89,SW,225,0.0,0.0,88,0.00,,,0.02,WUHU21623XXSP,2013-04-01 07:54:00,
2013-04-01 03:59:00,48.9,45.7,29.89,SW,225,0.0,0.0,88,0.00,,,0.02,WUHU21623XXSP,2013-04-01 07:59:00,
2013-04-01 04:04:00,48.7,45.3,29.89,SW,225,0.0,0.0,88,0.00,,,0.02,WUHU21623XXSP,2013-04-01 08:04:00,
2013-04-01 04:09:00,48.7,45.3,29.89,SW,225,0.0,0.0,88,0.00,,,0.02,WUHU21623XXSP,2013-04-01 08:09:00,
2013-04-01 04:14:00,48.2,44.9,29.89,SW,225,0.0,0.0,88,0.00,,,0.02,WUHU21623XXSP,2013-04-01 08:14:00,
2013-04-01 04:19:00,48.0,44.7,29.89,SW,225,0.0,0.0,88,0.00,,,0.02,WUHU21623XXSP,2013-04-01 08:19:00,
2013-04-01 04:24:00,47.8,44.5,29.89,SW,225,0.0,0.0,88,0.00,,,0.02,WUHU21623XXSP,2013-04-01 08:24:00,
2013-04-01 04:29:00,47.8,44.5,29.89,SW,225,0.0,0.0,88,0.00,,,0.02,WUHU21623XXSP,2013-04-01 08:29:00,
2013-04-01 04:34:00,47.5,44.1,29.89,SW,225,0.0,0.0,88,0.00,,,0.02,WUHU21623XXSP,2013-04-01 08:34:00,
2013-04-01 04:39:00,47.5,44.1,29.89,SW,225,0.0,0.0,88,0.00,,,0.02,WUHU21623XXSP,2013-04-01 08:39:00,
2013-04-01 04:44:00,47.5,44.1,29.89,SW,225,0.0,0.0,88,0.00,,,0.02,WUHU21623XXSP,2013-04-01 08:44:00,
2013-04-01 04:49:00,47.1,43.8,29.89,SW,225,0.0,0.0,88,0.00,,,0.02,WUHU21623XXSP,2013-04-01 08:49:00,
2013-04-01 04:54:00,47.1,43.8,29.89,SW,225,0.0,0.0,88,0.00,,,0.02,WUHU21623XXSP,2013-04-01 08:54:00,
2013-04-01 04:59:00,46.9,43.8,29.89,SW,225,0.0,0.0,88,0.00,,,0.02,WUHU21623XXSP,2013-04-01 08:59:00,
2013-04-01 05:04:00,46.8,43.4,29.89,SW,225,0.0,0.0,88,0.00,,,0.02,WUHU21623XXSP,2013-04-01 09:04:00,
2013-04-01 05:09:00,46.6,43.3,29.89,SW,225,0.0,0.0,88,0.00,,,0.02,WUHU21623XXSP,2013-04-01 09:09:00,
2013-04-01 05:14:00,46.2,42.9,29.89,SW,225,0.0,0.0,88,0.00,,,0.02,WUHU21623XXSP,2013-04-01 09:14:00,
2013-04-01 05:19:00,46.0,42.7,29.89,SW,225,0.0,0.0,88,0.00,,,0.02,WUHU21623XXSP,2013-04-01 09:19:00,
2013-04-01 05:24:00,45.7,42.4,29.89,SW,225,0.0,0.0,88,0.00,,,0.02,WUHU21623XXSP,2013-04-01 09:24:00,
2013-04-01 05:29:00,45.3,42.0,29.89,SW,225,0.0,0.0,88,0.00,,,0.02,WUHU21623XXSP,2013-04-01 09:29:00,
2013-04-01 05:34:00,45.1,41.8,29.89,SW,225,0.0,0.0,88,0.00,,,0.02,WUHU21623XXSP,2013-04-01 09:34:00,
2013-04-01 05:39:00,45.0,41.6,29.89,SW,225,0.0,0.0,88,0.00,,,0.02,WUHU21623XXSP,2013-04-01 09:39:00,
2013-04-01 05:44:00,44.6,41.5,29.90,SW,225,0.0,0.0,88,0.00,,,0.02,WUHU21623XXSP,2013-04-01 09:44:00,
2013-04-01 05:49:00,44.4,41.1,29.89,SW,225,0.0,0.0,88,0.00,,,0.02,WUHU21623XXSP,2013-04-01 09:49:00,
2013-04-01 05:54:00,44.2,40.9,29.90,SW,225,0.0,0.0,88,0.00,,,0.02,WUHU21623XXSP,2013-04-01 09:54:00,
2013-04-01 05:59:00,44.1,40.7,29.90,SW,225,0.0,0.0,88,0.00,,,0.02,WUHU21623XXSP,2013-04-01 09:59:00,
2013-04-01 06:04:00,43.9,40.6,29.90,SW,225,0.0,0.0,88,0.00,,,0.02,WUHU21623XXSP,2013-04-01 10:04:00,
2013-04-01 06:09:00,43.7,40.4,29.90,SW,225,0.0,0.0,88,0.00,,,0.02,WUHU21623XXSP,2013-04-01 10:09:00,
2013-04-01 06:15:00,43.5,40.2,29.91,SW,225,0.0,0.0,88,0.00,,,0.02,WUHU21623XXSP,2013-04-01 10:15:00,
2013-04-01 06:20:00,43.5,40.2,29.91,SW,225,0.0,0.0,88,0.00,,,0.02,WUHU21623XXSP,2013-04-01 10:20:00,
2013-04-01 06:25:00,43.3,40.0,29.91,SW,225,0.0,0.0,88,0.00,,,0.02,WUHU21623XXSP,2013-04-01 10:25:00,
2013-04-01 06:30:00,43.2,39.8,29.91,SW,225,0.0,0.0,88,0.00,,,0.02,WUHU21623XXSP,2013-04-01 10:30:00,
2013-04-01 06:35:00,43.2,39.8,29.92,SW,225,0.0,0.0,89,0.00,,,0.02,WUHU21623XXSP,2013-04-01 10:35:00,
2013-04-01 06:40:00,43.2,40.2,29.92,SW,225,0.0,0.0,89,0.00,,,0.02,WUHU21623XXSP,2013-04-01 10:40:00,
2013-04-01 06:45:00,43.3,40.2,29.92,SW,225,0.0,0.0,89,0.00,,,0.02,WUHU21623XXSP,2013-04-01 10:45:00,
2013-04-01 06:50:00,43.3,40.3,29.92,SW,225,0.0,0.0,89,0.00,,,0.02,WUHU21623XXSP,2013-04-01 10:50:00,
2013-04-01 06:55:00,43.5,40.5,29.92,SW,225,0.0,0.0,89,0.00,,,0.02,WUHU21623XXSP,2013-04-01 10:55:00,
2013-04-01 07:00:00,43.5,40.5,29.92,SW,225,0.0,0.0,89,0.00,,,0.02,WUHU21623XXSP,2013-04-01 11:00:00,
2013-04-01 07:05:00,43.5,40.5,29.92,SW,225,0.0,0.0,89,0.00,,,0.02,WUHU21623XXSP,2013-04-01 11:05:00,
2013-04-01 07:10:00,43.5,40.5,29.93,SW,225,0.0,0.0,89,0.00,,,0.02,WUHU21623XXSP,2013-04-01 11:10:00,
2013-04-01 07:15:00,43.5,40.5,29.93,SW,225,0.0,0.0,89,0.00,,,0.02,WUHU21623XXSP,2013-04-01 11:15:00,
2013-04-01 07:20:00,43.7,40.7,29.93,SW,225,0.0,0.0,89,0.00,,,0.02,WUHU21623XXSP,2013-04-01 11:20:00,
2013-04-01 07:25:00,43.7,40.7,29.93,SW,225,0.0,0.0,89,0.00,,,0.02,WUHU21623XXSP,2013-04-01 11:25:00,
2013-04-01 07:30:00,43.7,40.7,29.94,SW,225,0.0,0.0,89,0.00,,,0.02,WUHU21623XXSP,2013-04-01 11:30:00,
2013-04-01 07:35:00,43.7,40.7,29.94,SW,225,0.0,0.0,89,0.00,,,0.02,WUHU21623XXSP,2013-04-01 11:35:00,
2013-04-01 07:40:00,43.7,41.0,29.95,SW,225,0.0,0.0,90,0.00,,,0.02,WUHU21623XXSP,2013-04-01 11:40:00,
2013-04-01 07:45:00,43.5,40.5,29.95,SW,225,0.0,0.0,89,0.00,,,0.02,WUHU21623XXSP,2013-04-01 11:45:00,
2013-04-01 07:50:00,43.5,40.5,29.95,SW,225,0.0,0.0,89,0.00,,,0.02,WUHU21623XXSP,2013-04-01 11:50:00,
2013-04-01 07:55:00,43.5,40.5,29.95,SW,225,0.0,0.0,89,0.00,,,0.02,WUHU21623XXSP,2013-04-01 11:55:00,
2013-04-01 08:00:00,43.5,40.5,29.95,SW,225,0.0,0.0,89,0.00,,,0.02,WUHU21623XXSP,2013-04-01 12:00:00,
2013-04-01 08:05:00,43.7,40.7,29.96,SW,225,0.0,0.0,89,0.00,,,0.02,WUHU21623XXSP,2013-04-01 12:05:00,
2013-04-01 08:10:00,43.7,40.7,29.96,SW,225,0.0,0.0,89,0.00,,,0.02,WUHU21623XXSP,2013-04-01 12:10:00,
2013-04-01 08:15:00,43.9,41.2,29.96,SW,225,0.0,0.0,90,0.00,,,0.02,WUHU21623XXSP,2013-04-01 12:15:00,
2013-04-01 08:20:00,44.1,41.4,29.96,SW,225,0.0,0.0,90,0.00,,,0.02,WUHU21623XXSP,2013-04-01 12:20:00,
2013-04-01 08:25:00,44.2,41.5,29.97,SW,225,0.0,0.0,90,0.00,,,0.02,WUHU21623XXSP,2013-04-01 12:25:00,
2013-04-01 08:30:00,44.2,41.5,29.97,SW,225,0.0,0.0,90,0.00,,,0.02,WUHU21623XXSP,2013-04-01 12:30:00,
2013-04-01 08:35:00,44.4,41.7,29.97,SW,225,0.0,0.0,90,0.00,,,0.02,WUHU21623XXSP,2013-04-01 12:35:00,
2013-04-01 08:40:00,44.4,41.7,29.97,SW,225,0.0,0.0,90,0.00,,,0.02,WUHU21623XXSP,2013-04-01 12:40:00,
2013-04-01 08:46:00,44.8,42.1,29.97,SW,225,0.0,0.0,90,0.00,,,0.02,WUHU21623XXSP,2013-04-01 12:46:00,
2013-04-01 08:51:00,45.0,42.3,29.98,SW,225,0.0,0.0,90,0.00,,,0.02,WUHU21623XXSP,2013-04-01 12:51:00,
2013-04-01 08:56:00,45.3,42.6,29.98,SW,225,0.0,0.0,90,0.00,,,0.02,WUHU21623XXSP,2013-04-01 12:56:00,
2013-04-01 09:01:00,46.2,43.5,29.98,SW,225,0.0,0.0,90,0.00,,,0.02,WUHU21623XXSP,2013-04-01 13:01:00,
2013-04-01 09:06:00,46.9,44.2,29.98,SW,225,0.0,0.0,90,0.00,,,0.02,WUHU21623XXSP,2013-04-01 13:06:00,
2013-04-01 09:11:00,47.1,44.4,29.98,SW,225,0.0,0.0,90,0.00,,,0.02,WUHU21623XXSP,2013-04-01 13:11:00,
2013-04-01 09:16:00,47.8,45.1,29.98,SW,225,0.0,0.0,90,0.00,,,0.02,WUHU21623XXSP,2013-04-01 13:16:00,
2013-04-01 09:21:00,48.0,45.3,29.98,SW,225,0.0,0.0,90,0.00,,,0.02,WUHU21623XXSP,2013-04-01 13:21:00,
2013-04-01 09:27:00,48.6,45.5,29.98,SW,225,0.0,0.0,89,0.00,,,0.02,WUHU21623XXSP,2013-04-01 13:27:00,
2013-04-01 09:32:00,48.7,45.7,29.98,SW,225,0.0,0.0,89,0.00,,,0.02,WUHU21623XXSP,2013-04-01 13:32:00,
2013-04-01 09:37:00,49.3,46.1,29.98,SW,225,0.0,0.0,89,0.00,,,0.02,WUHU21623XXSP,2013-04-01 13:37:00,
2013-04-01 09:42:00,49.6,46.2,29.98,SW,225,0.0,0.0,88,0.00,,,0.02,WUHU21623XXSP,2013-04-01 13:42:00,
2013-04-01 09:47:00,49.8,46.3,29.99,SW,225,0.0,0.0,88,0.00,,,0.02,WUHU21623XXSP,2013-04-01 13:47:00,
2013-04-01 09:52:00,50.5,47.0,29.99,SW,225,0.0,0.0,88,0.00,,,0.02,WUHU21623XXSP,2013-04-01 13:52:00,
2013-04-01 09:57:00,50.9,47.2,29.99,SW,225,0.0,0.0,87,0.00,,,0.02,WUHU21623XXSP,2013-04-01 13:57:00,
2013-04-01 10:02:00,51.4,47.6,29.99,SW,225,0.0,0.0,87,0.00,,,0.02,WUHU21623XXSP,2013-04-01 14:02:00,
2013-04-01 10:07:00,52.0,47.9,29.99,SW,225,0.0,0.0,86,0.00,,,0.02,WUHU21623XXSP,2013-04-01 14:07:00,
2013-04-01 10:12:00,52.0,47.9,29.99,SW,225,0.0,0.0,86,0.00,,,0.02,WUHU21623XXSP,2013-04-01 14:12:00,
2013-04-01 10:17:00,52.3,47.9,29.99,SW,225,0.0,0.0,85,0.00,,,0.02,WUHU21623XXSP,2013-04-01 14:17:00,
2013-04-01 10:22:00,52.9,48.2,29.99,SW,225,0.0,0.0,84,0.00,,,0.02,WUHU21623XXSP,2013-04-01 14:22:00,
2013-04-01 10:28:00,53.8,48.7,30.00,SW,225,0.0,0.0,84,0.00,,,0.02,WUHU21623XXSP,2013-04-01 14:28:00,
2013-04-01 10:33:00,54.3,49.2,30.00,SW,225,0.0,0.0,83,0.00,,,0.02,WUHU21623XXSP,2013-04-01 14:33:00,
2013-04-01 10:38:00,54.7,48.9,30.00,SW,225,0.0,0.0,81,0.00,,,0.02,WUHU21623XXSP,2013-04-01 14:38:00,
2013-04-01 10:43:00,54.9,49.1,30.00,SW,225,0.0,0.0,81,0.00,,,0.02,WUHU21623XXSP,2013-04-01 14:43:00,
2013-04-01 10:48:00,55.2,49.1,30.00,WSW,247,0.0,0.0,80,0.00,,,0.02,WUHU21623XXSP,2013-04-01 14:48:00,
2013-04-01 10:53:00,55.8,49.6,30.00,WSW,247,0.0,0.0,80,0.00,,,0.02,WUHU21623XXSP,2013-04-01 14:53:00,
2013-04-01 10:58:00,56.1,50.0,30.00,WSW,247,0.0,0.0,80,0.00,,,0.02,WUHU21623XXSP,2013-04-01 14:58:00,
2013-04-01 11:03:00,56.8,50.4,30.00,WSW,247,0.0,0.0,79,0.00,,,0.02,WUHU21623XXSP,2013-04-01 15:03:00,
2013-04-01 11:08:00,57.4,50.5,30.00,SW,225,0.0,0.0,78,0.00,,,0.02,WUHU21623XXSP,2013-04-01 15:08:00,
2013-04-01 11:13:00,58.3,51.1,30.00,WSW,247,0.0,0.0,77,0.00,,,0.02,WUHU21623XXSP,2013-04-01 15:13:00,
2013-04-01 11:18:00,58.8,51.6,30.00,WSW,247,0.0,0.0,76,0.00,,,0.02,WUHU21623XXSP,2013-04-01 15:18:00,
2013-04-01 11:23:00,59.5,51.3,30.00,NNW,337,0.0,0.0,74,0.00,,,0.02,WUHU21623XXSP,2013-04-01 15:23:00,
2013-04-01 11:28:00,60.4,51.6,30.00,West,270,0.0,0.0,73,0.00,,,0.02,WUHU21623XXSP,2013-04-01 15:28:00,
2013-04-01 11:33:00,61.3,51.9,30.00,WSW,247,0.0,0.0,71,0.00,,,0.02,WUHU21623XXSP,2013-04-01 15:33:00,
2013-04-01 11:38:00,61.7,52.1,30.00,WSW,247,0.0,0.0,71,0.00,,,0.02,WUHU21623XXSP,2013-04-01 15:38:00,
2013-04-01 11:43:00,62.4,52.1,30.00,SSE,157,0.0,0.0,69,0.00,,,0.02,WUHU21623XXSP,2013-04-01 15:43:00,
2013-04-01 11:48:00,63.1,52.4,30.00,SW,225,0.0,0.0,68,0.00,,,0.02,WUHU21623XXSP,2013-04-01 15:48:00,
2013-04-01 11:53:00,63.7,52.5,30.00,WSW,247,0.0,0.0,67,0.00,,,0.02,WUHU21623XXSP,2013-04-01 15:53:00,
2013-04-01 11:58:00,64.6,52.1,30.00,SW,225,4.9,4.9,64,0.00,,,0.02,WUHU21623XXSP,2013-04-01 15:58:00,
2013-04-01 12:03:00,64.9,52.3,30.00,SSW,202,0.0,4.9,63,0.00,,,0.02,WUHU21623XXSP,2013-04-01 16:03:00,
2013-04-01 12:08:00,65.1,51.9,30.00,WSW,247,1.6,1.6,62,0.00,,,0.02,WUHU21623XXSP,2013-04-01 16:08:00,
2013-04-01 12:14:00,65.8,51.6,30.00,WSW,247,0.0,1.6,60,0.00,,,0.02,WUHU21623XXSP,2013-04-01 16:14:00,
2013-04-01 12:19:00,66.6,52.2,30.00,WSW,247,0.0,0.0,60,0.00,,,0.02,WUHU21623XXSP,2013-04-01 16:19:00,
2013-04-01 12:24:00,66.9,52.5,30.00,WSW,247,0.0,0.0,59,0.00,,,0.02,WUHU21623XXSP,2013-04-01 16:24:00,
2013-04-01 12:29:00,67.6,51.5,30.00,NW,315,0.0,0.0,57,0.00,,,0.02,WUHU21623XXSP,2013-04-01 16:29:00,
2013-04-01 12:34:00,67.8,51.3,30.00,NNW,337,0.0,0.0,55,0.00,,,0.02,WUHU21623XXSP,2013-04-01 16:34:00,
2013-04-01 12:39:00,67.8,50.5,30.00,West,270,0.0,0.0,52,0.00,,,0.02,WUHU21623XXSP,2013-04-01 16:39:00,
2013-04-01 12:44:00,67.8,49.5,30.00,WSW,247,1.6,3.8,52,0.00,,,0.02,WUHU21623XXSP,2013-04-01 16:44:00,
2013-04-01 12:49:00,68.2,49.9,30.00,WSW,247,0.0,3.8,52,0.00,,,0.02,WUHU21623XXSP,2013-04-01 16:49:00,
2013-04-01 12:54:00,68.4,49.5,30.01,West,270,0.0,1.6,50,0.00,,,0.02,WUHU21623XXSP,2013-04-01 16:54:00,
2013-04-01 12:59:00,68.7,49.2,30.00,SW,225,5.4,5.4,51,0.00,,,0.02,WUHU21623XXSP,2013-04-01 16:59:00,
2013-04-01 13:04:00,69.1,48.5,30.00,West,270,4.0,5.4,48,0.00,,,0.02,WUHU21623XXSP,2013-04-01 17:04:00,
2013-04-01 13:09:00,68.7,48.2,30.00,NW,315,0.0,4.0,48,0.00,,,0.02,WUHU21623XXSP,2013-04-01 17:09:00,
2013-04-01 13:14:00,69.1,49.0,30.00,NW,315,0.0,4.0,50,0.00,,,0.02,WUHU21623XXSP,2013-04-01 17:14:00,
2013-04-01 13:19:00,69.6,50.2,30.00,South,180,0.0,0.0,49,0.00,,,0.02,WUHU21623XXSP,2013-04-01 17:19:00,
2013-04-01 13:24:00,70.0,49.3,30.00,NNW,337,0.0,0.0,47,0.00,,,0.02,WUHU21623XXSP,2013-04-01 17:24:00,
2013-04-01 13:29:00,69.4,47.7,30.00,North,0,0.0,0.0,46,0.00,,,0.02,WUHU21623XXSP,2013-04-01 17:29:00,
2013-04-01 13:34:00,69.3,47.9,30.01,West,270,0.0,0.0,48,0.00,,,0.02,WUHU21623XXSP,2013-04-01 17:34:00,
2013-04-01 13:39:00,69.8,48.8,30.01,West,270,0.0,0.0,47,0.00,,,0.02,WUHU21623XXSP,2013-04-01 17:39:00,
2013-04-01 13:44:00,70.3,48.9,30.01,West,270,0.0,0.0,46,0.00,,,0.02,WUHU21623XXSP,2013-04-01 17:44:00,
2013-04-01 13:49:00,70.7,48.2,30.00,WNW,292,0.0,0.0,45,0.00,,,0.02,WUHU21623XXSP,2013-04-01 17:49:00,
2013-04-01 13:54:00,69.4,47.1,30.01,West,270,0.0,0.0,45,0.00,,,0.02,WUHU21623XXSP,2013-04-01 17:54:00,
2013-04-01 13:59:00,68.2,45.9,30.00,WSW,247,0.0,0.0,45,0.00,,,0.02,WUHU21623XXSP,2013-04-01 17:59:00,
2013-04-01 14:04:00,67.3,46.0,30.01,WSW,247,0.0,0.0,47,0.00,,,0.02,WUHU21623XXSP,2013-04-01 18:04:00,
2013-04-01 14:09:00,67.6,46.6,30.00,West,270,0.0,0.0,47,0.00,,,0.02,WUHU21623XXSP,2013-04-01 18:09:00,
2013-04-01 14:14:00,68.5,46.9,30.00,NNW,337,1.1,1.1,46,0.00,,,0.02,WUHU21623XXSP,2013-04-01 18:14:00,
2013-04-01 14:19:00,68.5,46.3,30.00,West,270,0.0,2.0,45,0.00,,,0.02,WUHU21623XXSP,2013-04-01 18:19:00,
2013-04-01 14:24:00,67.8,45.9,30.00,West,270,0.0,2.0,46,0.00,,,0.02,WUHU21623XXSP,2013-04-01 18:24:00,
2013-04-01 14:30:00,67.3,46.3,30.00,West,270,0.0,0.0,47,0.00,,,0.02,WUHU21623XXSP,2013-04-01 18:30:00,
2013-04-01 14:35:00,66.4,46.1,30.00,West,270,0.0,0.0,48,0.00,,,0.02,WUHU21623XXSP,2013-04-01 18:35:00,
2013-04-01 14:40:00,66.6,46.9,30.00,WNW,292,0.0,0.0,49,0.00,,,0.02,WUHU21623XXSP,2013-04-01 18:40:00,
2013-04-01 14:45:00,67.6,47.2,30.00,NW,315,0.0,0.0,48,0.00,,,0.02,WUHU21623XXSP,2013-04-01 18:45:00,
2013-04-01 14:50:00,68.5,47.9,29.99,West,270,0.0,0.0,48,0.00,,,0.02,WUHU21623XXSP,2013-04-01 18:50:00,
2013-04-01 14:55:00,68.7,47.6,29.99,West,270,0.0,0.0,47,0.00,,,0.02,WUHU21623XXSP,2013-04-01 18:55:00,
2013-04-01 15:00:00,68.5,47.4,29.99,West,270,0.0,0.0,47,0.00,,,0.02,WUHU21623XXSP,2013-04-01 19:00:00,
2013-04-01 15:05:00,68.5,46.9,29.99,WSW,247,0.0,2.9,46,0.00,,,0.02,WUHU21623XXSP,2013-04-01 19:05:00,
2013-04-01 15:10:00,68.2,47.1,29.99,South,180,0.0,2.9,47,0.00,,,0.02,WUHU21623XXSP,2013-04-01 19:10:00,
2013-04-01 15:15:00,69.1,47.3,29.99,West,270,0.0,0.0,46,0.00,,,0.02,WUHU21623XXSP,2013-04-01 19:15:00,
2013-04-01 15:20:00,69.1,46.7,29.99,SW,225,1.1,2.2,45,0.00,,,0.02,WUHU21623XXSP,2013-04-01 19:20:00,
2013-04-01 15:25:00,68.4,46.4,29.99,West,270,0.0,2.2,45,0.00,,,0.02,WUHU21623XXSP,2013-04-01 19:25:00,
2013-04-01 15:30:00,68.4,46.7,29.99,WSW,247,0.0,1.3,46,0.00,,,0.02,WUHU21623XXSP,2013-04-01 19:30:00,
2013-04-01 15:35:00,69.1,46.7,29.99,West,270,0.0,1.3,45,0.00,,,0.02,WUHU21623XXSP,2013-04-01 19:35:00,
2013-04-01 15:40:00,69.3,46.9,29.99,WSW,247,2.5,2.5,45,0.00,,,0.02,WUHU21623XXSP,2013-04-01 19:40:00,
2013-04-01 15:45:00,68.7,46.4,29.98,SW,225,4.9,4.9,45,0.00,,,0.02,WUHU21623XXSP,2013-04-01 19:45:00,
2013-04-01 15:50:00,68.2,45.9,29.99,West,270,0.0,4.9,45,0.00,,,0.02,WUHU21623XXSP,2013-04-01 19:50:00,
2013-04-01 15:55:00,67.6,45.6,29.98,West,270,5.8,5.8,45,0.00,,,0.02,WUHU21623XXSP,2013-04-01 19:55:00,
2013-04-01 16:00:00,65.8,44.5,29.98,West,270,5.8,5.8,46,0.00,,,0.02,WUHU21623XXSP,2013-04-01 20:00:00,
2013-04-01 16:05:00,64.9,44.7,29.98,WSW,247,0.0,5.8,48,0.00,,,0.02,WUHU21623XXSP,2013-04-01 20:05:00,
2013-04-01 16:10:00,65.1,45.4,29.98,WNW,292,0.0,0.0,49,0.00,,,0.02,WUHU21623XXSP,2013-04-01 20:10:00,
2013-04-01 16:15:00,66.7,45.9,29.98,WSW,247,0.0,0.0,48,0.00,,,0.02,WUHU21623XXSP,2013-04-01 20:15:00,
2013-04-01 16:20:00,66.9,46.0,29.98,NNW,337,0.0,0.0,47,0.00,,,0.02,WUHU21623XXSP,2013-04-01 20:20:00,
2013-04-01 16:25:00,66.6,45.4,29.98,NNE,22,0.0,0.0,46,0.00,,,0.02,WUHU21623XXSP,2013-04-01 20:25:00,
2013-04-01 16:30:00,65.5,44.6,29.98,NW,315,6.7,6.7,47,0.00,,,0.02,WUHU21623XXSP,2013-04-01 20:30:00,
2013-04-01 16:35:00,65.1,44.3,29.98,WSW,247,2.0,6.7,47,0.00,,,0.02,WUHU21623XXSP,2013-04-01 20:35:00,
2013-04-01 16:41:00,64.9,44.1,29.98,West,270,0.0,6.7,47,0.00,,,0.02,WUHU21623XXSP,2013-04-01 20:41:00,
2013-04-01 16:46:00,64.6,44.3,29.98,West,270,1.1,1.1,48,0.00,,,0.02,WUHU21623XXSP,2013-04-01 20:46:00,
2013-04-01 16:51:00,64.8,44.5,29.98,SSE,157,0.0,1.1,48,0.00,,,0.02,WUHU21623XXSP,2013-04-01 20:51:00,
2013-04-01 16:56:00,66.0,45.8,29.98,West,270,0.0,2.2,48,0.00,,,0.02,WUHU21623XXSP,2013-04-01 20:56:00,
2013-04-01 17:01:00,66.9,45.4,29.97,WSW,247,0.0,2.2,46,0.00,,,0.02,WUHU21623XXSP,2013-04-01 21:01:00,
2013-04-01 17:06:00,67.1,45.6,29.98,West,270,0.0,2.9,46,0.00,,,0.02,WUHU21623XXSP,2013-04-01 21:06:00,
2013-04-01 17:11:00,66.6,44.5,29.98,West,270,1.8,2.9,45,0.00,,,0.02,WUHU21623XXSP,2013-04-01 21:11:00,
2013-04-01 17:17:00,66.6,44.5,29.98,West,270,0.0,1.8,46,0.00,,,0.02,WUHU21623XXSP,2013-04-01 21:17:00,
2013-04-01 17:22:00,66.6,44.5,29.98,West,270,0.4,3.8,45,0.00,,,0.02,WUHU21623XXSP,2013-04-01 21:22:00,
2013-04-01 17:27:00,66.4,44.3,29.97,WSW,247,0.0,3.8,45,0.00,,,0.02,WUHU21623XXSP,2013-04-01 21:27:00,
2013-04-01 17:32:00,66.4,43.7,29.97,West,270,0.0,0.0,44,0.00,,,0.02,WUHU21623XXSP,2013-04-01 21:32:00,
2013-04-01 17:37:00,66.2,43.6,29.97,West,270,0.0,7.6,44,0.00,,,0.02,WUHU21623XXSP,2013-04-01 21:37:00,
2013-04-01 17:42:00,66.0,43.4,29.97,West,270,0.0,7.6,44,0.00,,,0.02,WUHU21623XXSP,2013-04-01 21:42:00,
2013-04-01 17:47:00,65.8,43.2,29.97,West,270,2.0,2.0,44,0.00,,,0.02,WUHU21623XXSP,2013-04-01 21:47:00,
2013-04-01 17:52:00,65.5,42.9,29.97,SSE,157,0.0,2.0,44,0.00,,,0.02,WUHU21623XXSP,2013-04-01 21:52:00,
2013-04-01 17:57:00,65.3,42.1,29.97,NNW,337,0.0,0.0,43,0.00,,,0.02,WUHU21623XXSP,2013-04-01 21:57:00,
2013-04-01 18:03:00,64.8,42.2,29.98,NE,45,0.4,0.4,44,0.00,,,0.02,WUHU21623XXSP,2013-04-01 22:03:00,
2013-04-01 18:08:00,64.2,41.1,29.98,North,0,0.0,3.1,43,0.00,,,0.02,WUHU21623XXSP,2013-04-01 22:08:00,
2013-04-01 18:13:00,64.0,41.5,29.98,West,270,0.0,3.1,44,0.00,,,0.02,WUHU21623XXSP,2013-04-01 22:13:00,
2013-04-01 18:19:00,63.9,41.4,29.98,NNW,337,0.0,2.0,44,0.00,,,0.02,WUHU21623XXSP,2013-04-01 22:19:00,
2013-04-01 18:24:00,63.3,40.3,29.98,West,270,3.4,4.7,43,0.00,,,0.02,WUHU21623XXSP,2013-04-01 22:24:00,
2013-04-01 18:29:00,63.0,40.0,29.98,WSW,247,7.2,7.2,43,0.00,,,0.02,WUHU21623XXSP,2013-04-01 22:29:00,
2013-04-01 18:34:00,62.4,40.1,29.98,North,0,2.7,7.2,44,0.00,,,0.02,WUHU21623XXSP,2013-04-01 22:34:00,
2013-04-01 18:39:00,62.1,39.8,29.98,North,0,0.0,3.8,44,0.00,,,0.02,WUHU21623XXSP,2013-04-01 22:39:00,
2013-04-01 18:44:00,61.7,40.0,29.98,West,270,2.5,2.5,45,0.00,,,0.02,WUHU21623XXSP,2013-04-01 22:44:00,
2013-04-01 18:49:00,61.3,39.8,29.99,NNW,337,2.0,2.5,45,0.00,,,0.02,WUHU21623XXSP,2013-04-01 22:49:00,
2013-04-01 18:54:00,61.2,39.5,29.99,North,0,0.0,2.0,45,0.00,,,0.02,WUHU21623XXSP,2013-04-01 22:54:00,
2013-04-01 18:59:00,61.0,39.9,29.99,SW,225,6.3,6.3,46,0.00,,,0.02,WUHU21623XXSP,2013-04-01 22:59:00,
2013-04-01 19:04:00,60.6,39.6,29.99,SW,225,3.1,6.3,46,0.00,,,0.02,WUHU21623XXSP,2013-04-01 23:04:00,
2013-04-01 19:10:00,60.4,40.0,29.99,West,270,0.0,3.1,47,0.00,,,0.02,WUHU21623XXSP,2013-04-01 23:10:00,
2013-04-01 19:15:00,60.1,39.7,29.99,West,270,3.4,3.4,47,0.00,,,0.02,WUHU21623XXSP,2013-04-01 23:15:00,
2013-04-01 19:20:00,59.5,39.2,29.99,West,270,0.0,3.4,47,0.00,,,0.02,WUHU21623XXSP,2013-04-01 23:20:00,
2013-04-01 19:25:00,59.0,39.3,29.99,NW,315,0.0,0.0,48,0.00,,,0.02,WUHU21623XXSP,2013-04-01 23:25:00,
2013-04-01 19:30:00,58.8,39.1,29.99,WSW,247,0.0,0.0,48,0.00,,,0.02,WUHU21623XXSP,2013-04-01 23:30:00,
2013-04-01 19:35:00,58.5,39.4,29.99,WSW,247,0.0,0.0,49,0.00,,,0.02,WUHU21623XXSP,2013-04-01 23:35:00,
2013-04-01 19:40:00,57.9,38.9,29.99,West,270,0.0,0.0,49,0.00,,,0.02,WUHU21623XXSP,2013-04-01 23:40:00,
2013-04-01 19:45:00,57.7,39.3,29.99,West,270,0.0,0.0,50,0.00,,,0.02,WUHU21623XXSP,2013-04-01 23:45:00,
2013-04-01 19:50:00,57.2,38.8,29.99,WNW,292,0.0,0.0,50,0.00,,,0.02,WUHU21623XXSP,2013-04-01 23:50:00,
2013-04-01 19:55:00,57.0,39.1,30.00,West,270,0.0,0.0,51,0.00,,,0.02,WUHU21623XXSP,2013-04-01 23:55:00,
2013-04-01 20:00:00,56.5,38.6,30.00,West,270,0.0,4.3,51,0.00,,,0.02,WUHU21623XXSP,2013-04-02 00:00:00,
2013-04-01 20:05:00,56.1,38.2,30.00,WNW,292,0.0,4.3,51,0.00,,,0.02,WUHU21623XXSP,2013-04-02 00:05:00,
2013-04-01 20:10:00,55.9,38.0,30.00,West,270,0.0,0.0,51,0.00,,,0.02,WUHU21623XXSP,2013-04-02 00:10:00,
2013-04-01 20:15:00,55.6,38.2,30.00,West,270,1.8,1.8,52,0.00,,,0.02,WUHU21623XXSP,2013-04-02 00:15:00,
2013-04-01 20:20:00,55.4,38.0,30.00,West,270,0.0,1.8,52,0.00,,,0.02,WUHU21623XXSP,2013-04-02 00:20:00,
2013-04-01 20:25:00,55.2,37.8,30.00,West,270,0.0,1.6,52,0.00,,,0.02,WUHU21623XXSP,2013-04-02 00:25:00,
2013-04-01 20:30:00,54.7,37.8,30.00,North,0,4.3,4.3,53,0.00,,,0.02,WUHU21623XXSP,2013-04-02 00:30:00,
2013-04-01 20:35:00,54.5,37.6,30.00,WNW,292,0.0,4.3,53,0.00,,,0.02,WUHU21623XXSP,2013-04-02 00:35:00,
2013-04-01 20:40:00,54.3,37.9,30.00,NW,315,0.0,0.0,54,0.00,,,0.02,WUHU21623XXSP,2013-04-02 00:40:00,
2013-04-01 20:45:00,54.1,37.8,30.00,West,270,0.0,5.6,54,0.00,,,0.02,WUHU21623XXSP,2013-04-02 00:45:00,
2013-04-01 20:50:00,54.0,38.1,30.00,WSW,247,0.0,5.6,55,0.00,,,0.02,WUHU21623XXSP,2013-04-02 00:50:00,
2013-04-01 20:55:00,54.0,38.1,30.00,West,270,0.0,0.0,55,0.00,,,0.02,WUHU21623XXSP,2013-04-02 00:55:00,
2013-04-01 21:00:00,53.6,37.8,30.01,West,270,0.0,0.0,55,0.00,,,0.02,WUHU21623XXSP,2013-04-02 01:00:00,
2013-04-01 21:05:00,53.4,37.6,30.01,West,270,0.0,0.0,55,0.00,,,0.02,WUHU21623XXSP,2013-04-02 01:05:00,
2013-04-01 21:10:00,53.2,37.6,30.01,West,270,0.0,0.0,55,0.00,,,0.02,WUHU21623XXSP,2013-04-02 01:10:00,
2013-04-01 21:15:00,52.9,37.5,30.02,West,270,0.0,0.0,56,0.00,,,0.02,WUHU21623XXSP,2013-04-02 01:15:00,
2013-04-01 21:20:00,52.5,37.2,30.02,West,270,0.0,0.0,56,0.00,,,0.02,WUHU21623XXSP,2013-04-02 01:20:00,
2013-04-01 21:25:00,52.2,37.0,30.02,West,270,0.0,0.0,56,0.00,,,0.02,WUHU21623XXSP,2013-04-02 01:25:00,
2013-04-01 21:30:00,51.8,36.7,30.02,West,270,0.0,0.0,56,0.00,,,0.02,WUHU21623XXSP,2013-04-02 01:30:00,
2013-04-01 21:35:00,51.6,36.8,30.02,West,270,0.0,0.0,57,0.00,,,0.02,WUHU21623XXSP,2013-04-02 01:35:00,
2013-04-01 21:40:00,51.3,37.1,30.02,West,270,0.0,0.0,58,0.00,,,0.02,WUHU21623XXSP,2013-04-02 01:40:00,
2013-04-01 21:46:00,51.1,36.8,30.02,West,270,0.0,0.0,58,0.00,,,0.02,WUHU21623XXSP,2013-04-02 01:46:00,
2013-04-01 21:51:00,50.9,36.8,30.03,West,270,0.0,0.0,58,0.00,,,0.02,WUHU21623XXSP,2013-04-02 01:51:00,
2013-04-01 21:56:00,50.7,36.9,30.03,West,270,0.0,0.0,59,0.00,,,0.02,WUHU21623XXSP,2013-04-02 01:56:00,
2013-04-01 22:01:00,50.5,36.7,30.03,West,270,0.0,0.0,59,0.00,,,0.02,WUHU21623XXSP,2013-04-02 02:01:00,
2013-04-01 22:06:00,50.5,36.7,30.03,West,270,0.0,0.0,59,0.00,,,0.02,WUHU21623XXSP,2013-04-02 02:06:00,
2013-04-01 22:11:00,50.2,36.8,30.03,West,270,0.0,0.0,60,0.00,,,0.02,WUHU21623XXSP,2013-04-02 02:11:00,
2013-04-01 22:16:00,50.2,36.4,30.03,West,270,0.0,0.0,59,0.00,,,0.02,WUHU21623XXSP,2013-04-02 02:16:00,
2013-04-01 22:21:00,50.0,36.7,30.04,West,270,0.0,0.0,60,0.00,,,0.02,WUHU21623XXSP,2013-04-02 02:21:00,
2013-04-01 22:26:00,49.8,36.5,30.04,West,270,0.0,0.0,60,0.00,,,0.02,WUHU21623XXSP,2013-04-02 02:26:00,
2013-04-01 22:31:00,49.6,36.4,30.04,West,270,0.0,0.0,60,0.00,,,0.02,WUHU21623XXSP,2013-04-02 02:31:00,
2013-04-01 22:37:00,49.3,36.0,30.04,West,270,0.0,0.0,60,0.00,,,0.02,WUHU21623XXSP,2013-04-02 02:37:00,
2013-04-01 22:42:00,49.1,35.9,30.04,West,270,0.0,0.0,60,0.00,,,0.02,WUHU21623XXSP,2013-04-02 02:42:00,
2013-04-01 22:47:00,49.1,35.9,30.04,West,270,0.0,0.0,60,0.00,,,0.02,WUHU21623XXSP,2013-04-02 02:47:00,
2013-04-01 22:52:00,49.1,35.9,30.04,West,270,0.0,0.0,60,0.00,,,0.02,WUHU21623XXSP,2013-04-02 02:52:00,
2013-04-01 22:57:00,48.9,35.7,30.04,West,270,0.0,0.0,60,0.00,,,0.02,WUHU21623XXSP,2013-04-02 02:57:00,
2013-04-01 23:02:00,48.9,35.7,30.04,West,270,0.0,0.0,60,0.00,,,0.02,WUHU21623XXSP,2013-04-02 03:02:00,
2013-04-01 23:07:00,48.9,35.7,30.04,West,270,0.0,0.0,60,0.00,,,0.02,WUHU21623XXSP,2013-04-02 03:07:00,
2013-04-01 23:12:00,48.9,35.2,30.04,West,270,0.0,0.0,59,0.00,,,0.02,WUHU21623XXSP,2013-04-02 03:12:00,
2013-04-01 23:17:00,48.9,35.2,30.04,West,270,0.0,0.0,59,0.00,,,0.02,WUHU21623XXSP,2013-04-02 03:17:00,
2013-04-01 23:22:00,48.9,35.2,30.04,West,270,3.4,3.4,59,0.00,,,0.02,WUHU21623XXSP,2013-04-02 03:22:00,
2013-04-01 23:27:00,48.7,35.2,30.04,West,270,0.0,3.4,59,0.00,,,0.02,WUHU21623XXSP,2013-04-02 03:27:00,
2013-04-01 23:32:00,48.7,35.1,30.04,West,270,0.0,0.0,59,0.00,,,0.02,WUHU21623XXSP,2013-04-02 03:32:00,
2013-04-01 23:37:00,48.7,34.6,30.04,West,270,0.0,0.0,58,0.00,,,0.02,WUHU21623XXSP,2013-04-02 03:37:00,
2013-04-01 23:42:00,48.7,34.6,30.04,West,270,0.0,0.0,58,0.00,,,0.02,WUHU21623XXSP,2013-04-02 03:42:00,
2013-04-01 23:47:00,48.7,34.6,30.04,WNW,292,0.0,0.0,58,0.00,,,0.02,WUHU21623XXSP,2013-04-02 03:47:00,
2013-04-01 23:52:00,48.7,34.6,30.04,WNW,292,0.0,0.0,58,0.00,,,0.02,WUHU21623XXSP,2013-04-02 03:52:00,
2013-04-01 23:57:00,48.6,34.4,30.04,West,270,0.0,0.0,58,0.00,,,0.02,WUHU21623XXSP,2013-04-02 03:57:00,